SBCP/CAW METAR and TAF weather

Enter ICAO airport designator
Station Type Date Time Source
SBCP METAR 2020/04/09 10:00 UTC NOAA

SBCP 091000Z 00000KT CAVOK 22/21 Q1014


Station Type Date Time Source
SBCP Decoded METAR 2020/04/09 10:00 UTC NOAA

Campos, Brazil (SBCP) 21-45S 041-20W 11M
Apr 09, 2020 - 06:00 AM EDT / 2020.04.09 1000 UTC
Wind: Calm:0
Visibility: greater than 7 mile(s):0
Temperature: 71 F (22 C)
Dew Point: 69 F (21 C)
Relative Humidity: 94%
Pressure (altimeter): 29.94 in. Hg (1014 hPa)
ob: SBCP 091000Z 00000KT CAVOK 22/21 Q1014
cycle: 10

Station Type Date Time Source
SBCP TAF 2020/04/09 12:35 UTC NOAA

TAF SBCP 090900Z 0912/0924 04008KT 8000 SHRA FEW020 TX24/0917Z TN22/0921Z
BECMG 0916/0918 15005KT SCT020
RMK PAY

Example: see airport list